createdAt,value
2019-04-05T00:05:02.378Z,16.3
2019-04-05T00:10:07.600Z,19.4
2019-04-05T00:15:15.420Z,20.4
2019-04-05T00:20:21.308Z,19.8
2019-04-05T00:25:26.773Z,20.1
2019-04-05T00:30:31.879Z,21.6
2019-04-05T00:35:36.965Z,21.9
2019-04-05T00:40:42.106Z,24.7
2019-04-05T00:45:47.156Z,18
2019-04-05T00:50:52.644Z,18.7
2019-04-05T00:55:58.662Z,19.2
2019-04-05T01:01:03.852Z,19.3
2019-04-05T01:06:09.002Z,19.6
2019-04-05T01:11:14.194Z,19.5
2019-04-05T01:16:19.349Z,17
2019-04-05T01:21:24.487Z,16.1
2019-04-05T01:26:29.475Z,16.4
2019-04-05T01:31:34.697Z,19.4
2019-04-05T01:36:39.628Z,16.7
2019-04-05T01:41:44.956Z,13.8
2019-04-05T01:46:50.029Z,23.4
2019-04-05T01:51:55.193Z,14.9
2019-04-05T01:57:00.327Z,15
2019-04-05T02:02:04.549Z,14.8
2019-04-05T02:07:09.775Z,19.4
2019-04-05T02:12:14.957Z,15.3
2019-04-05T02:17:20.144Z,18.1
2019-04-05T02:22:25.381Z,14.6
2019-04-05T02:27:30.544Z,18.7
2019-04-05T02:32:35.874Z,23.3
2019-04-05T02:37:41.085Z,17.7
2019-04-05T02:42:46.352Z,16.7
2019-04-05T02:47:51.824Z,15.7
2019-04-05T02:52:56.682Z,15.1
2019-04-05T02:58:02.081Z,11.4
2019-04-05T03:03:07.147Z,17.7
2019-04-05T03:08:10.887Z,13.9
2019-04-05T03:13:16.324Z,13.1
2019-04-05T03:18:20.034Z,15.2
2019-04-05T03:23:25.207Z,14.8
2019-04-05T03:28:30.380Z,16.3
2019-04-05T03:33:35.972Z,16
2019-04-05T03:38:41.197Z,14.1
2019-04-05T03:43:46.274Z,15.8
2019-04-05T03:48:51.257Z,16.9
2019-04-05T03:53:56.746Z,14.6
2019-04-05T03:59:01.920Z,16
2019-04-05T04:04:07.122Z,21
2019-04-05T04:09:15.696Z,13.9
2019-04-05T04:14:22.763Z,13.7
2019-04-05T04:19:27.918Z,16.9
2019-04-05T04:24:33.179Z,16.5
2019-04-05T04:29:37.073Z,16.9
2019-04-05T04:34:42.599Z,14.8
2019-04-05T04:39:47.520Z,17
2019-04-05T04:44:55.794Z,14.5
2019-04-05T04:49:55.750Z,17.9
2019-04-05T04:55:00.738Z,18.2
2019-04-05T05:00:06.644Z,16.9
2019-04-05T05:05:10.444Z,17.1
2019-04-05T05:10:15.337Z,19.1
2019-04-05T05:15:19.057Z,21.5
2019-04-05T05:20:24.117Z,25.6
2019-04-05T05:25:29.432Z,17.3
2019-04-05T05:30:34.557Z,16.8
2019-04-05T05:35:39.815Z,17.5
2019-04-05T05:40:44.752Z,20.6
2019-04-05T05:45:50.029Z,16.5
2019-04-05T05:50:55.429Z,20.6
2019-04-05T05:56:00.818Z,22.2
2019-04-05T06:01:06.262Z,16.2
2019-04-05T06:06:11.611Z,18.9
2019-04-05T06:11:16.918Z,20.2
2019-04-05T06:16:20.580Z,36.3
2019-04-05T06:21:25.529Z,16.7
2019-04-05T06:26:30.811Z,16.8
2019-04-05T06:31:34.889Z,21.3
2019-04-05T06:36:39.983Z,20
2019-04-05T06:41:44.858Z,17.1
2019-04-05T06:46:50.264Z,17.7
2019-04-05T06:51:54.155Z,19.1
2019-04-05T06:56:58.428Z,16
2019-04-05T07:02:03.753Z,17.3
2019-04-05T07:07:09.215Z,15.5
2019-04-05T07:12:12.821Z,19.3
2019-04-05T07:17:17.986Z,18.1
2019-04-05T07:22:35.797Z,17.2
2019-04-05T07:27:23.049Z,15.2
2019-04-05T07:32:29.780Z,18.6
2019-04-05T07:37:36.484Z,21.2
2019-04-05T07:42:42.573Z,24.2
2019-04-05T07:47:47.732Z,20.7
2019-04-05T07:52:51.156Z,20.8
2019-04-05T07:57:56.359Z,23.4
2019-04-05T08:03:01.463Z,21.9
2019-04-05T08:08:06.530Z,17.3
2019-04-05T08:13:12.720Z,18.4
2019-04-05T08:18:17.996Z,16.1
2019-04-05T08:23:21.456Z,24.5
2019-04-05T08:28:29.473Z,20.6
2019-04-05T08:33:36.482Z,22.6
2019-04-05T08:38:42.037Z,19
2019-04-05T08:43:47.273Z,17.8
2019-04-05T08:48:52.798Z,21.6
2019-04-05T08:53:56.407Z,19.7
2019-04-05T08:59:01.656Z,29.2
2019-04-05T09:04:06.927Z,45
2019-04-05T09:09:12.002Z,30.2
2019-04-05T09:14:16.928Z,22.7
2019-04-05T09:19:25.521Z,26.3
2019-04-05T09:24:28.920Z,29.2
2019-04-05T09:29:34.083Z,29.4
2019-04-05T09:34:39.311Z,27.1
2019-04-05T09:39:44.753Z,32.5
2019-04-05T09:44:52.952Z,30.9
2019-04-05T09:49:50.153Z,23.7
2019-04-05T09:54:55.153Z,21.4
2019-04-05T10:00:00.396Z,18
2019-04-05T10:05:04.934Z,19.5
2019-04-05T10:10:10.437Z,24.3
2019-04-05T10:15:15.505Z,22.6
2019-04-05T10:20:19.301Z,29.8
2019-04-05T10:25:24.428Z,25.6
2019-04-05T10:30:30.045Z,24.8
2019-04-05T10:35:35.341Z,32.9
2019-04-05T10:40:40.621Z,32.2
2019-04-05T10:45:45.641Z,40.4
2019-04-05T10:50:50.844Z,41.8
2019-04-05T10:55:59.167Z,47.7
2019-04-05T11:01:04.470Z,58.8
2019-04-05T11:06:09.657Z,39.6
2019-04-05T11:11:14.925Z,36.4
2019-04-05T11:16:20.272Z,35.7
2019-04-05T11:21:25.267Z,31.5
2019-04-05T11:26:30.420Z,31.8
2019-04-05T11:31:35.725Z,28.5
2019-04-05T11:36:40.747Z,29.8
2019-04-05T11:41:45.865Z,46.1
2019-04-05T11:46:51.238Z,23.1
2019-04-05T11:51:56.485Z,23.1
2019-04-05T11:57:01.500Z,23.8
2019-04-05T12:02:06.832Z,21.3
2019-04-05T12:07:12.406Z,25.6
2019-04-05T12:12:17.533Z,23.9
2019-04-05T12:17:22.486Z,29
2019-04-05T12:22:29.320Z,26.3
2019-04-05T12:27:38.231Z,26.7
2019-04-05T12:32:43.474Z,21.6
2019-04-05T12:37:50.353Z,20.9
2019-04-05T12:42:52.943Z,22.8
2019-04-05T12:47:59.183Z,17.5
2019-04-05T12:53:04.876Z,24.8
2019-04-05T12:58:10.109Z,17.8
2019-04-05T13:03:15.185Z,23.1
2019-04-05T13:08:23.709Z,25.8
2019-04-05T13:13:29.376Z,19.1
2019-04-05T13:18:34.336Z,20.6
2019-04-05T13:23:39.350Z,24.7
2019-04-05T13:28:39.454Z,25.2
2019-04-05T13:33:44.371Z,21.5
2019-04-05T13:38:54.867Z,32.3
2019-04-05T13:43:54.404Z,29
2019-04-05T13:48:59.724Z,31.3
2019-04-05T13:54:04.809Z,52.5
2019-04-05T13:59:13.552Z,73.4
2019-04-05T14:04:20.635Z,67.1
2019-04-05T14:09:26.394Z,48.8
2019-04-05T14:14:34.518Z,44
2019-04-05T14:19:39.819Z,37.5
2019-04-05T14:24:44.939Z,26.2
2019-04-05T14:29:49.943Z,21.7
2019-04-05T14:34:55.778Z,21
2019-04-05T14:40:01.343Z,26.5
2019-04-05T14:45:06.235Z,28.3
2019-04-05T14:50:11.493Z,27.3
2019-04-05T14:55:19.627Z,24.6
2019-04-05T15:00:24.779Z,20.1
2019-04-05T15:05:30.391Z,21
2019-04-05T15:10:38.097Z,24.5
2019-04-05T15:15:43.729Z,23.9
2019-04-05T15:20:49.023Z,16.8
2019-04-05T15:25:53.619Z,24.6
2019-04-05T15:30:59.629Z,23.2
2019-04-05T15:36:04.904Z,22.7
2019-04-05T15:41:10.242Z,30.5
2019-04-05T15:46:15.433Z,24.3
2019-04-05T15:51:20.327Z,17.1
2019-04-05T15:56:33.138Z,17.4
2019-04-05T16:01:38.860Z,16.8
2019-04-05T16:06:43.252Z,15.6
2019-04-05T16:11:50.176Z,21.4
2019-04-05T16:16:55.292Z,24.2
2019-04-05T16:22:00.507Z,19
2019-04-05T16:27:05.681Z,22.2
2019-04-05T16:32:11.271Z,20.3
2019-04-05T16:37:16.493Z,17.9
2019-04-05T16:42:21.531Z,27.7
2019-04-05T16:47:28.014Z,19.3
2019-04-05T16:52:44.042Z,18.3
2019-04-05T16:57:40.105Z,24.5
2019-04-05T17:02:45.140Z,20.8
2019-04-05T17:07:49.066Z,18.5
2019-04-05T17:12:53.928Z,22
2019-04-05T17:17:59.121Z,18.6
2019-04-05T17:23:04.627Z,20.7
2019-04-05T17:28:10.166Z,16.5
2019-04-05T17:33:15.402Z,21.7
2019-04-05T17:38:20.528Z,22.2
2019-04-05T17:43:25.699Z,20.8
2019-04-05T17:48:30.794Z,20.3
2019-04-05T17:53:35.788Z,19.9
2019-04-05T17:58:41.076Z,20
2019-04-05T18:03:46.283Z,20.3
2019-04-05T18:08:51.328Z,18.9
2019-04-05T18:13:56.335Z,20.3
2019-04-05T18:19:01.454Z,17.6
2019-04-05T18:24:06.380Z,18.5
2019-04-05T18:29:11.696Z,18.2
2019-04-05T18:34:16.580Z,18
2019-04-05T18:39:21.690Z,17.2
2019-04-05T18:44:26.736Z,21.8
2019-04-05T18:49:31.769Z,18.1
2019-04-05T18:54:36.880Z,17.8
2019-04-05T18:59:40.648Z,17.1
2019-04-05T19:04:45.744Z,17.2
2019-04-05T19:09:53.819Z,19.8
2019-04-05T19:14:59.019Z,19.5
2019-04-05T19:20:04.765Z,23.1
2019-04-05T19:25:10.302Z,17.1
2019-04-05T19:50:39.312Z,8.9
2019-04-05T19:55:42.656Z,7.5
2019-04-05T20:00:47.840Z,6.5
2019-04-05T20:05:52.941Z,4.4
2019-04-05T20:10:58.193Z,4.8
2019-04-05T20:16:03.252Z,4.3
2019-04-05T20:21:08.648Z,3.6
2019-04-05T20:26:16.525Z,4.5
2019-04-05T20:31:21.596Z,3.6
2019-04-05T20:36:25.856Z,3.2
2019-04-05T20:41:30.813Z,3.6
2019-04-05T20:46:36.422Z,3.5
2019-04-05T20:51:41.780Z,4.6
2019-04-05T20:56:46.919Z,4.9
2019-04-05T21:01:51.987Z,5.5
2019-04-05T21:06:57.201Z,4
2019-04-05T21:12:02.290Z,3.8
2019-04-05T21:17:07.931Z,4.5
2019-04-05T21:22:13.176Z,4.9
2019-04-05T21:27:18.971Z,4.5
2019-04-05T21:32:24.072Z,3.3
2019-04-05T21:37:29.372Z,5.1
2019-04-05T21:42:34.634Z,4.6
2019-04-05T21:47:39.841Z,4.4
2019-04-05T21:52:45.107Z,4.8
2019-04-05T21:57:49.596Z,4.1
2019-04-05T22:02:53.343Z,3.7
2019-04-05T22:07:58.992Z,3.5
2019-04-05T22:13:04.450Z,4.3
2019-04-05T22:18:09.928Z,4.6
2019-04-05T22:23:14.956Z,8.7
2019-04-05T22:28:20.163Z,4.8
2019-04-05T22:33:25.301Z,2.9
2019-04-05T22:38:30.665Z,4.5
2019-04-05T22:43:35.911Z,4.4
2019-04-05T22:48:41.356Z,3.3
2019-04-05T22:53:46.286Z,3.7
2019-04-05T23:03:57.367Z,4.2
2019-04-05T23:09:03.126Z,4.6
2019-04-05T23:14:08.272Z,6.9
2019-04-05T23:19:11.969Z,3.1
2019-04-05T23:24:17.186Z,3.4
2019-04-05T23:29:25.209Z,3.7
2019-04-05T23:34:30.315Z,3.3
2019-04-05T23:39:35.419Z,3.6
2019-04-05T23:44:40.621Z,4
2019-04-05T23:49:45.799Z,3.6
2019-04-05T23:54:50.975Z,3.8
2019-04-05T23:59:56.096Z,3.8
